Time;durP1;ratioP1;P1;durP2;ratioP2;P2;SDS_P1;SDS_P2;PMS_P1;PMS_P2;Temp;Humidity;BMP_temperature;BMP_pressure;BME280_temperature;BME280_humidity;BME280_pressure;Samples;Min_cycle;Max_cycle;Signal;HPM_P1;HPM_P2
2021/09/26 00:01:29;;;;;;;43.15;29.95;;;435.90;2355.20;;;;;;5104322;28;20103;-78
2021/09/26 00:03:55;;;;;;;43.28;29.02;;;435.90;2355.20;;;;;;5106566;28;20096;-78
2021/09/26 00:06:21;;;;;;;36.97;25.20;;;435.90;2355.20;;;;;;5098036;28;20944;-77
2021/09/26 00:08:46;;;;;;;46.45;27.65;;;435.80;2355.20;;;;;;5079788;28;20027;-77
2021/09/26 00:11:13;;;;;;;37.03;25.83;;;435.70;2355.20;;;;;;5110494;28;20024;-77
2021/09/26 00:13:40;;;;;;;32.60;22.08;;;435.70;2355.20;;;;;;5093243;28;20027;-77
2021/09/26 00:16:07;;;;;;;25.00;15.35;;;435.70;2355.20;;;;;;5103268;28;20028;-78
2021/09/26 00:18:34;;;;;;;22.63;15.90;;;435.70;2355.20;;;;;;5103823;28;20379;-77
2021/09/26 00:21:00;;;;;;;28.73;16.08;;;435.70;2355.20;;;;;;5093329;28;20034;-77
2021/09/26 00:23:27;;;;;;;21.48;13.85;;;435.60;2355.20;;;;;;5087865;28;20026;-78
2021/09/26 00:25:54;;;;;;;21.58;15.02;;;435.50;2355.20;;;;;;5090637;28;20066;-77
2021/09/26 00:28:21;;;;;;;18.73;13.13;;;435.50;2355.20;;;;;;5107909;28;20031;-78
2021/09/26 00:30:47;;;;;;;15.65;11.38;;;435.50;2355.20;;;;;;5107467;28;20383;-78
2021/09/26 00:33:13;;;;;;;20.08;13.45;;;435.40;2355.20;;;;;;5111868;28;20028;-78
2021/09/26 00:35:39;;;;;;;16.65;11.85;;;435.40;2355.20;;;;;;5109377;28;20035;-78
2021/09/26 00:38:05;;;;;;;23.85;12.73;;;435.40;2355.20;;;;;;5114407;28;20033;-78
2021/09/26 00:40:31;;;;;;;18.27;11.35;;;435.40;2355.20;;;;;;5109719;28;20047;-77
2021/09/26 00:42:57;;;;;;;14.13;10.52;;;435.40;2355.20;;;;;;5113564;28;20030;-77
2021/09/26 00:45:23;;;;;;;16.35;10.07;;;435.40;2355.20;;;;;;5097809;28;20019;-77
2021/09/26 00:47:49;;;;;;;15.20;10.45;;;435.40;2355.20;;;;;;5104923;28;20035;-76
2021/09/26 00:50:16;;;;;;;16.08;10.40;;;435.40;2355.20;;;;;;5114305;28;20073;-77
2021/09/26 00:52:46;;;;;;;14.23;9.18;;;435.40;2355.20;;;;;;5103204;28;20106;-76
2021/09/26 00:55:13;;;;;;;14.45;9.43;;;435.20;2355.20;;;;;;5114225;28;20057;-76
2021/09/26 00:57:41;;;;;;;12.20;9.93;;;435.20;2355.20;;;;;;5084762;28;20035;-76
2021/09/26 01:00:08;;;;;;;15.65;11.10;;;435.20;2355.20;;;;;;5107996;28;20020;-76
2021/09/26 01:02:34;;;;;;;13.52;10.40;;;435.20;2355.20;;;;;;5104113;28;20020;-76
2021/09/26 01:05:01;;;;;;;15.52;9.80;;;435.20;2355.20;;;;;;5106109;28;20088;-76
2021/09/26 01:07:31;;;;;;;15.43;10.60;;;435.40;2355.20;;;;;;5089957;28;20024;-76
2021/09/26 01:10:02;;;;;;;14.38;9.85;;;410.50;2355.20;;;;;;5114842;28;20035;-76
2021/09/26 01:12:47;;;;;;;16.50;10.05;;;410.50;2355.20;;;;;;5089281;28;20118;-76
2021/09/26 01:15:31;;;;;;;14.00;9.82;;;410.50;2355.20;;;;;;5114297;28;20045;-76
2021/09/26 01:18:06;;;;;;;18.42;10.45;;;410.30;2355.20;;;;;;5096045;28;20034;-75
2021/09/26 01:20:37;;;;;;;15.95;10.43;;;410.30;2355.20;;;;;;5088632;28;20024;-76
2021/09/26 01:23:06;;;;;;;15.40;10.82;;;410.30;2355.20;;;;;;5092448;28;20044;-76
2021/09/26 01:25:57;;;;;;;15.95;9.75;;;410.30;2355.20;;;;;;5088514;28;20047;-76
2021/09/26 01:28:50;;;;;;;14.43;9.88;;;410.30;2355.20;;;;;;5112676;28;20023;-76
2021/09/26 01:31:21;;;;;;;19.60;10.00;;;410.20;2355.20;;;;;;5112613;28;20037;-76
2021/09/26 01:34:02;;;;;;;11.45;8.80;;;410.10;2355.20;;;;;;5111242;28;20024;-75
2021/09/26 01:36:35;;;;;;;12.43;9.02;;;410.10;2355.20;;;;;;5085523;28;20562;-76
2021/09/26 01:39:17;;;;;;;13.07;8.60;;;410.10;2355.20;;;;;;5082220;28;20277;-75
2021/09/26 01:42:01;;;;;;;13.80;8.35;;;410.10;2355.20;;;;;;5101353;28;20026;-76
2021/09/26 01:44:41;;;;;;;17.25;10.27;;;410.10;2355.20;;;;;;5087292;28;20047;-76
2021/09/26 01:47:13;;;;;;;11.95;9.52;;;410.00;2355.20;;;;;;5087774;28;20032;-76
2021/09/26 01:50:01;;;;;;;13.45;8.75;;;410.00;2355.20;;;;;;5088159;28;20107;-76
2021/09/26 01:52:31;;;;;;;12.77;9.48;;;410.00;2355.20;;;;;;5087057;28;20027;-76
2021/09/26 01:54:58;;;;;;;15.63;8.65;;;410.10;2355.20;;;;;;5088225;28;20020;-76
2021/09/26 01:57:25;;;;;;;15.57;9.00;;;410.00;2355.20;;;;;;5109956;28;20126;-77
2021/09/26 01:59:56;;;;;;;14.20;11.30;;;410.00;2355.20;;;;;;5092388;28;20079;-76
2021/09/26 02:02:24;;;;;;;11.48;8.32;;;410.00;2355.20;;;;;;5103947;28;20023;-76
2021/09/26 02:04:52;;;;;;;12.00;8.73;;;410.00;2355.20;;;;;;5103000;28;20059;-76
2021/09/26 02:07:19;;;;;;;11.90;9.43;;;410.00;2355.20;;;;;;5105055;28;20023;-76
2021/09/26 02:09:46;;;;;;;13.77;8.23;;;410.00;2355.20;;;;;;5108225;28;20098;-76
2021/09/26 02:12:16;;;;;;;12.10;8.07;;;410.00;2355.20;;;;;;5106457;28;20023;-76
2021/09/26 02:14:42;;;;;;;16.40;9.98;;;410.00;2355.20;;;;;;5113693;28;20072;-76
2021/09/26 02:17:10;;;;;;;11.35;9.27;;;410.00;2355.20;;;;;;5112982;28;20092;-76
2021/09/26 02:19:37;;;;;;;14.05;10.30;;;409.90;2355.20;;;;;;5095155;28;20024;-76
2021/09/26 02:22:08;;;;;;;17.42;11.40;;;409.90;2355.20;;;;;;5094766;28;20020;-76
2021/09/26 02:24:35;;;;;;;15.20;10.23;;;409.80;2355.20;;;;;;5094823;28;20127;-76
2021/09/26 02:27:02;;;;;;;12.52;9.90;;;409.80;2355.20;;;;;;5113572;28;20012;-76
2021/09/26 02:29:28;;;;;;;15.23;10.10;;;409.80;2355.20;;;;;;5111395;28;20020;-75
2021/09/26 02:31:54;;;;;;;16.92;10.10;;;409.70;2355.20;;;;;;5100554;28;20027;-76
2021/09/26 02:34:20;;;;;;;12.88;9.13;;;409.60;2355.20;;;;;;5094615;28;20073;-76
2021/09/26 02:36:46;;;;;;;17.90;9.10;;;409.70;2355.20;;;;;;5112941;28;20388;-76
2021/09/26 02:39:14;;;;;;;16.10;9.73;;;409.70;2355.20;;;;;;5094446;28;20035;-76
2021/09/26 02:42:06;;;;;;;18.25;10.13;;;409.60;2355.20;;;;;;5094717;28;20100;-75
2021/09/26 02:44:41;;;;;;;22.00;9.90;;;409.60;2355.20;;;;;;5094993;28;20023;-75
2021/09/26 02:47:19;;;;;;;11.82;9.52;;;384.90;2329.60;;;;;;5093532;28;20048;-76
2021/09/26 02:49:46;;;;;;;16.48;10.23;;;384.90;2329.60;;;;;;5106680;28;20031;-76
2021/09/26 02:52:12;;;;;;;16.10;11.07;;;384.90;2329.60;;;;;;5076439;28;20031;-77
2021/09/26 02:54:41;;;;;;;12.25;10.35;;;384.80;2329.60;;;;;;5074912;28;20036;-77
2021/09/26 02:57:08;;;;;;;13.77;11.20;;;384.70;2329.60;;;;;;5111395;28;20024;-76
2021/09/26 02:59:38;;;;;;;12.63;9.77;;;384.60;2329.60;;;;;;5093753;28;20024;-76
2021/09/26 03:02:05;;;;;;;15.15;11.50;;;384.60;2329.60;;;;;;5097110;28;20500;-76
2021/09/26 03:04:31;;;;;;;16.48;10.52;;;384.60;2329.60;;;;;;5074898;28;20059;-75
2021/09/26 03:06:57;;;;;;;14.55;10.70;;;384.60;2329.60;;;;;;5089113;28;20059;-76
2021/09/26 03:09:23;;;;;;;14.38;10.07;;;384.60;2329.60;;;;;;5082377;28;20387;-76
2021/09/26 03:11:50;;;;;;;13.23;9.75;;;384.70;2329.60;;;;;;5112046;28;20019;-76
2021/09/26 03:14:16;;;;;;;15.73;11.55;;;384.60;2329.60;;;;;;5098461;28;20015;-76
2021/09/26 03:16:42;;;;;;;15.45;11.05;;;384.50;2329.60;;;;;;5094080;28;20379;-76
2021/09/26 03:19:08;;;;;;;18.42;10.57;;;384.40;2329.60;;;;;;5112249;28;20026;-75
2021/09/26 03:21:34;;;;;;;17.50;10.82;;;384.40;2329.60;;;;;;5093474;28;20400;-75
2021/09/26 03:24:00;;;;;;;15.50;10.50;;;384.40;2329.60;;;;;;5112371;28;20020;-75
2021/09/26 03:26:26;;;;;;;17.40;10.75;;;384.30;2329.60;;;;;;5093920;28;20027;-75
2021/09/26 03:28:52;;;;;;;21.08;12.75;;;384.40;2329.60;;;;;;5112225;28;20070;-75
2021/09/26 03:31:18;;;;;;;15.65;10.82;;;384.40;2329.60;;;;;;5111789;28;20094;-76
2021/09/26 03:33:44;;;;;;;16.27;9.93;;;384.30;2329.60;;;;;;5106693;28;20020;-76
2021/09/26 03:36:11;;;;;;;16.83;10.70;;;384.30;2329.60;;;;;;5092220;28;20024;-76
2021/09/26 03:38:37;;;;;;;13.05;10.48;;;384.20;2329.60;;;;;;5111947;28;20028;-76
2021/09/26 03:41:02;;;;;;;15.60;11.02;;;384.20;2329.60;;;;;;5090469;28;20074;-75
2021/09/26 03:43:28;;;;;;;16.90;11.48;;;384.30;2329.60;;;;;;5108498;28;20024;-76
2021/09/26 03:45:54;;;;;;;15.23;10.98;;;384.30;2329.60;;;;;;5086890;28;20024;-76
2021/09/26 03:48:22;;;;;;;15.05;11.20;;;384.30;2329.60;;;;;;5108404;28;20031;-76
2021/09/26 03:50:49;;;;;;;14.10;10.18;;;384.20;2329.60;;;;;;5088289;28;20019;-75
2021/09/26 03:53:15;;;;;;;14.45;10.77;;;384.20;2329.60;;;;;;5107942;28;20020;-76
2021/09/26 03:55:41;;;;;;;17.10;11.70;;;384.20;2329.60;;;;;;5108608;28;20028;-75
2021/09/26 03:58:07;;;;;;;16.42;10.18;;;384.10;2329.60;;;;;;5108203;28;20494;-76
2021/09/26 04:00:33;;;;;;;14.02;9.48;;;384.10;2329.60;;;;;;5104320;28;20028;-75
2021/09/26 04:02:58;;;;;;;16.75;9.65;;;384.20;2329.60;;;;;;5098208;28;20357;-76
2021/09/26 04:05:24;;;;;;;13.77;10.65;;;384.10;2329.60;;;;;;5109477;28;20040;-75
2021/09/26 04:07:50;;;;;;;14.45;10.20;;;384.10;2329.60;;;;;;5107885;28;20023;-76
2021/09/26 04:10:16;;;;;;;17.30;10.50;;;384.10;2329.60;;;;;;5097231;28;20031;-76
2021/09/26 04:12:43;;;;;;;13.85;9.15;;;384.10;2329.60;;;;;;5108633;28;20074;-75
2021/09/26 04:15:10;;;;;;;13.32;9.52;;;384.10;2329.60;;;;;;5108651;28;20024;-75
2021/09/26 04:17:35;;;;;;;11.60;8.77;;;384.00;2329.60;;;;;;5115759;28;20487;-75
2021/09/26 04:20:02;;;;;;;14.57;9.70;;;384.00;2329.60;;;;;;5115282;28;20028;-76
2021/09/26 04:22:28;;;;;;;15.27;10.05;;;384.00;2329.60;;;;;;5115619;28;20027;-75
2021/09/26 04:24:54;;;;;;;12.23;9.05;;;384.00;2329.60;;;;;;5115315;28;20024;-75
2021/09/26 04:27:19;;;;;;;15.15;9.80;;;384.00;2329.60;;;;;;5115127;28;20028;-75
2021/09/26 04:29:45;;;;;;;11.90;9.27;;;384.00;2329.60;;;;;;5097319;28;20054;-75
2021/09/26 04:32:11;;;;;;;10.77;8.35;;;384.00;2329.60;;;;;;5127117;27;20492;-76
2021/09/26 04:34:37;;;;;;;10.55;8.18;;;384.00;2329.60;;;;;;5096404;28;20566;-76
2021/09/26 04:37:03;;;;;;;17.63;11.13;;;384.00;2329.60;;;;;;5091096;28;20028;-76
2021/09/26 04:39:29;;;;;;;16.50;10.05;;;384.00;2329.60;;;;;;5090830;28;20026;-75
2021/09/26 04:41:55;;;;;;;11.10;8.40;;;384.00;2329.60;;;;;;5111065;28;20031;-76
2021/09/26 04:44:21;;;;;;;11.82;9.25;;;359.30;2329.60;;;;;;5093128;28;20027;-76
2021/09/26 04:46:47;;;;;;;10.98;8.48;;;359.20;2329.60;;;;;;5115017;28;20098;-76
2021/09/26 04:49:13;;;;;;;12.32;9.43;;;359.20;2329.60;;;;;;5108105;28;20103;-75
2021/09/26 04:51:39;;;;;;;15.73;9.70;;;359.20;2329.60;;;;;;5126533;27;20031;-75
2021/09/26 04:54:05;;;;;;;11.43;8.80;;;359.20;2329.60;;;;;;5096379;28;20039;-76
2021/09/26 04:56:31;;;;;;;13.82;9.52;;;359.10;2329.60;;;;;;5093026;28;20078;-75
2021/09/26 04:58:57;;;;;;;12.05;8.73;;;359.20;2329.60;;;;;;5114528;28;20499;-74
2021/09/26 05:01:22;;;;;;;14.75;9.40;;;359.20;2329.60;;;;;;5110972;28;20473;-76
2021/09/26 05:03:48;;;;;;;13.93;9.82;;;359.10;2329.60;;;;;;5110735;28;20035;-75
2021/09/26 05:06:15;;;;;;;15.70;9.60;;;359.20;2329.60;;;;;;5092521;28;20040;-75
2021/09/26 05:08:41;;;;;;;12.45;9.40;;;359.20;2329.60;;;;;;5085571;28;20035;-75
2021/09/26 05:11:07;;;;;;;16.10;9.27;;;359.10;2329.60;;;;;;5108796;28;20106;-75
2021/09/26 05:13:33;;;;;;;11.40;9.48;;;359.30;2329.60;;;;;;5097721;28;20024;-76
2021/09/26 05:15:59;;;;;;;13.43;9.23;;;359.30;2329.60;;;;;;5096220;28;20030;-76
2021/09/26 05:18:25;;;;;;;11.68;9.43;;;384.00;2329.60;;;;;;5094834;28;20053;-75
2021/09/26 05:20:54;;;;;;;13.40;9.48;;;384.00;2329.60;;;;;;5113761;28;20023;-75
2021/09/26 05:23:23;;;;;;;12.57;9.35;;;384.10;2329.60;;;;;;5095587;28;20068;-75
2021/09/26 05:25:48;;;;;;;15.73;10.32;;;384.10;2329.60;;;;;;5129721;27;20019;-76
2021/09/26 05:28:15;;;;;;;12.40;9.35;;;384.10;2329.60;;;;;;5096083;28;20069;-76
2021/09/26 05:30:41;;;;;;;13.45;9.05;;;384.20;2329.60;;;;;;5095397;28;20055;-76
2021/09/26 05:33:07;;;;;;;16.90;9.20;;;384.20;2329.60;;;;;;5096265;28;20051;-75
2021/09/26 05:35:33;;;;;;;11.95;8.02;;;384.20;2329.60;;;;;;5113728;28;20034;-76
2021/09/26 05:37:58;;;;;;;11.70;9.80;;;384.30;2329.60;;;;;;5091318;28;20028;-75
2021/09/26 05:40:25;;;;;;;11.95;9.93;;;384.40;2329.60;;;;;;5113710;28;20020;-74
2021/09/26 05:42:52;;;;;;;13.60;9.27;;;384.40;2329.60;;;;;;5113788;28;20018;-74
2021/09/26 05:45:18;;;;;;;14.52;9.68;;;384.50;2329.60;;;;;;5095867;28;20020;-75
2021/09/26 05:47:43;;;;;;;13.50;8.90;;;384.50;2329.60;;;;;;5113532;28;20027;-75
2021/09/26 05:50:10;;;;;;;14.27;9.52;;;384.60;2329.60;;;;;;5129696;27;20118;-75
2021/09/26 05:52:36;;;;;;;12.55;9.60;;;384.70;2329.60;;;;;;5129423;27;20027;-75
2021/09/26 05:55:02;;;;;;;12.52;9.73;;;384.90;2329.60;;;;;;5113820;28;20058;-75
2021/09/26 05:57:28;;;;;;;13.25;9.57;;;409.60;2355.20;;;;;;5105885;28;20024;-75
2021/09/26 05:59:54;;;;;;;14.60;10.30;;;409.70;2355.20;;;;;;5122424;27;20023;-75
2021/09/26 06:02:27;;;;;;;11.65;9.95;;;409.90;2355.20;;;;;;5089301;28;20028;-75
2021/09/26 06:04:53;;;;;;;12.70;9.43;;;410.00;2355.20;;;;;;5117938;27;20039;-75
2021/09/26 06:07:19;;;;;;;11.10;9.50;;;410.20;2355.20;;;;;;5117940;27;20499;-75
2021/09/26 06:09:45;;;;;;;14.23;9.25;;;410.30;2355.20;;;;;;5104714;28;20097;-75
2021/09/26 06:12:11;;;;;;;11.90;9.85;;;410.40;2355.20;;;;;;5104886;28;20032;-75
2021/09/26 06:14:38;;;;;;;17.20;9.45;;;435.20;2355.20;;;;;;5105999;28;20586;-75
2021/09/26 06:17:05;;;;;;;12.93;9.15;;;435.40;2355.20;;;;;;5108176;28;20506;-76
2021/09/26 06:19:30;;;;;;;12.88;10.18;;;435.50;2355.20;;;;;;5084733;28;20024;-76
2021/09/26 06:21:56;;;;;;;15.32;10.23;;;435.70;2355.20;;;;;;5086474;28;20566;-75
2021/09/26 06:24:22;;;;;;;10.73;9.55;;;435.90;2355.20;;;;;;5105708;28;20028;-75
2021/09/26 06:26:48;;;;;;;12.68;10.25;;;436.00;2355.20;;;;;;5114338;27;20071;-75
2021/09/26 06:29:14;;;;;;;12.73;9.45;;;460.80;2380.80;;;;;;5090704;28;20112;-75
2021/09/26 06:31:40;;;;;;;11.15;8.05;;;460.90;2380.80;;;;;;5103960;28;20024;-75
2021/09/26 06:34:06;;;;;;;9.80;8.13;;;461.10;2380.80;;;;;;5105034;28;20024;-76
2021/09/26 06:36:33;;;;;;;8.88;7.30;;;461.30;2380.80;;;;;;5116989;27;20164;-75
2021/09/26 06:38:59;;;;;;;9.30;6.75;;;461.40;2380.80;;;;;;5091071;28;20023;-76
2021/09/26 06:41:24;;;;;;;10.85;8.18;;;461.70;2380.80;;;;;;5104520;28;20020;-75
2021/09/26 06:43:51;;;;;;;11.82;7.43;;;486.40;2380.80;;;;;;5103915;28;20023;-76
2021/09/26 06:46:17;;;;;;;9.35;7.47;;;486.70;2380.80;;;;;;5106597;28;20026;-76
2021/09/26 06:48:44;;;;;;;7.75;6.60;;;486.80;2380.80;;;;;;5091395;28;20020;-76
2021/09/26 06:51:11;;;;;;;11.70;8.02;;;487.10;2380.80;;;;;;5083203;28;20119;-76
2021/09/26 06:53:37;;;;;;;10.95;7.72;;;487.30;2380.80;;;;;;5085771;28;20020;-75
2021/09/26 06:56:03;;;;;;;9.73;6.85;;;512.20;2380.80;;;;;;5090722;28;20027;-76
2021/09/26 06:58:29;;;;;;;11.57;7.95;;;512.40;2380.80;;;;;;5081937;28;20047;-76
2021/09/26 07:00:55;;;;;;;11.15;7.80;;;512.70;2380.80;;;;;;5083383;28;20024;-75
2021/09/26 07:03:20;;;;;;;13.48;9.13;;;537.60;2406.40;;;;;;5112102;27;20031;-76
2021/09/26 07:05:46;;;;;;;16.88;12.10;;;538.00;2406.40;;;;;;5104479;28;20044;-76
2021/09/26 07:08:12;;;;;;;17.58;14.13;;;538.20;2406.40;;;;;;5117136;27;20096;-75
2021/09/26 07:10:38;;;;;;;20.50;16.33;;;538.50;2406.40;;;;;;5102999;28;20028;-76
2021/09/26 07:13:05;;;;;;;23.98;18.25;;;563.30;2432.00;;;;;;5104429;28;20058;-76
2021/09/26 07:15:30;;;;;;;27.15;20.75;;;563.50;2432.00;;;;;;5102790;28;20027;-76
2021/09/26 07:17:58;;;;;;;32.30;21.67;;;563.70;2432.00;;;;;;5084844;28;20047;-77
2021/09/26 07:20:27;;;;;;;27.63;22.13;;;563.70;2432.00;;;;;;5107301;28;20511;-77
2021/09/26 07:22:54;;;;;;;33.08;23.25;;;564.10;2432.00;;;;;;5092051;28;20024;-76
2021/09/26 07:25:20;;;;;;;32.13;24.23;;;588.80;2432.00;;;;;;5101666;28;20029;-76
2021/09/26 07:27:46;;;;;;;35.05;24.65;;;588.90;2432.00;;;;;;5100380;28;20020;-76
2021/09/26 07:30:12;;;;;;;34.40;24.33;;;589.20;2432.00;;;;;;5086355;28;20036;-76
2021/09/26 07:32:38;;;;;;;38.33;27.63;;;589.60;2432.00;;;;;;5117484;28;20080;-76
2021/09/26 07:35:05;;;;;;;37.20;28.40;;;614.40;2432.00;;;;;;5104302;28;20020;-77
2021/09/26 07:37:30;;;;;;;38.42;31.25;;;614.60;2432.00;;;;;;5081021;28;20040;-76
2021/09/26 07:39:56;;;;;;;40.63;34.13;;;614.80;2432.00;;;;;;5098474;28;20807;-77
2021/09/26 07:42:22;;;;;;;45.78;34.53;;;615.00;2432.00;;;;;;5102064;28;20048;-76
2021/09/26 07:44:48;;;;;;;42.38;33.67;;;615.20;2432.00;;;;;;5121356;27;20024;-76
2021/09/26 07:47:14;;;;;;;37.13;31.90;;;640.00;2432.00;;;;;;5086517;28;20019;-76
2021/09/26 07:49:39;;;;;;;41.35;31.25;;;640.20;2432.00;;;;;;5102204;28;20012;-77
2021/09/26 07:52:05;;;;;;;40.17;31.48;;;640.20;2432.00;;;;;;5089144;28;20488;-77
2021/09/26 07:54:32;;;;;;;35.15;27.92;;;640.50;2432.00;;;;;;5092741;28;20097;-77
2021/09/26 07:56:58;;;;;;;30.95;23.88;;;665.60;2432.00;;;;;;5108514;28;20482;-77
2021/09/26 07:59:24;;;;;;;42.10;30.10;;;665.70;2432.00;;;;;;5087963;28;20028;-77
2021/09/26 08:01:50;;;;;;;31.63;26.45;;;666.00;2432.00;;;;;;5088831;28;20023;-77
2021/09/26 08:04:16;;;;;;;27.85;23.75;;;666.40;2432.00;;;;;;5106592;28;20490;-78
2021/09/26 08:06:42;;;;;;;25.70;22.30;;;666.50;2432.00;;;;;;5108835;28;20036;-78
2021/09/26 08:09:08;;;;;;;28.63;20.75;;;691.20;2432.00;;;;;;5110013;28;20074;-77
2021/09/26 08:11:34;;;;;;;20.30;18.10;;;691.40;2432.00;;;;;;5087226;28;20695;-77
2021/09/26 08:14:00;;;;;;;20.60;18.23;;;691.60;2432.00;;;;;;5089763;28;20078;-77
2021/09/26 08:16:26;;;;;;;23.45;18.15;;;691.70;2432.00;;;;;;5084971;28;20035;-76
2021/09/26 08:18:52;;;;;;;19.92;15.85;;;691.70;2432.00;;;;;;5124714;27;20028;-76
2021/09/26 08:21:18;;;;;;;25.33;19.73;;;691.90;2432.00;;;;;;5109721;28;20020;-77
2021/09/26 08:23:44;;;;;;;19.75;15.27;;;716.90;2432.00;;;;;;5104060;28;20028;-76
2021/09/26 08:26:10;;;;;;;17.77;12.60;;;717.10;2432.00;;;;;;5106069;28;20020;-77
2021/09/26 08:28:36;;;;;;;14.75;12.60;;;717.60;2406.40;;;;;;5104843;28;20514;-76
2021/09/26 08:31:03;;;;;;;16.63;12.55;;;717.70;2355.20;;;;;;5106682;28;20377;-76
2021/09/26 08:33:28;;;;;;;13.55;10.80;;;742.60;2329.60;;;;;;5104424;28;20024;-79
2021/09/26 08:35:54;;;;;;;17.20;9.98;;;743.00;2304.00;;;;;;5105422;28;20476;-75
2021/09/26 08:38:20;;;;;;;9.10;8.05;;;743.30;2252.80;;;;;;5089327;28;20039;-75
2021/09/26 08:40:49;;;;;;;10.20;7.60;;;768.00;2201.60;;;;;;5103307;28;20023;-75
2021/09/26 08:43:21;;;;;;;9.13;7.10;;;768.20;2150.40;;;;;;5111960;28;20022;-76
2021/09/26 08:45:48;;;;;;;10.25;7.47;;;768.40;2124.80;;;;;;5086324;28;20046;-76
2021/09/26 08:48:14;;;;;;;12.63;7.38;;;768.40;2073.60;;;;;;5104672;28;20028;-76
2021/09/26 08:50:42;;;;;;;12.10;9.57;;;768.50;2048.00;;;;;;5089777;28;20507;-76
2021/09/26 08:53:08;;;;;;;12.10;10.55;;;768.70;2022.40;;;;;;5099391;28;20496;-75
2021/09/26 08:55:35;;;;;;;10.75;7.70;;;793.80;2022.40;;;;;;5091575;28;20046;-75
2021/09/26 08:58:01;;;;;;;11.35;8.30;;;794.00;1996.80;;;;;;5104937;28;20032;-75
2021/09/26 09:00:27;;;;;;;11.15;7.18;;;794.30;1971.20;;;;;;5086558;28;20442;-76
2021/09/26 09:02:54;;;;;;;13.55;9.23;;;819.20;1920.00;;;;;;5100200;28;20020;-75
2021/09/26 09:05:36;;;;;;;9.68;7.78;;;819.20;1920.00;;;;;;5081455;28;20048;-75
2021/09/26 09:08:19;;;;;;;10.23;6.68;;;819.70;1843.20;;;;;;5116450;27;20126;-75
2021/09/26 09:10:50;;;;;;;8.10;5.40;;;844.80;1817.60;;;;;;5104275;28;20016;-75
2021/09/26 09:13:26;;;;;;;7.88;5.13;;;820.10;1792.00;;;;;;5107843;28;20023;-75
2021/09/26 09:15:59;;;;;;;8.43;4.25;;;845.00;1766.40;;;;;;5084458;28;20024;-75
2021/09/26 09:18:34;;;;;;;7.25;4.40;;;845.20;1740.80;;;;;;5098119;28;20111;-75
2021/09/26 09:21:00;;;;;;;;;;;845.50;1689.60;;;;;;5108131;28;20479;-75
2021/09/26 09:23:26;;;;;;;7.47;5.50;;;845.70;1664.00;;;;;;5088104;28;20020;-73
2021/09/26 09:25:56;;;;;;;9.50;4.80;;;870.60;1664.00;;;;;;5101210;28;20096;-73
2021/09/26 09:28:23;;;;;;;7.03;5.05;;;870.60;1638.40;;;;;;5102264;28;20050;-73
2021/09/26 09:30:54;;;;;;;6.68;4.20;;;870.60;1587.20;;;;;;5103869;28;20020;-73
2021/09/26 09:33:22;;;;;;;7.43;4.70;;;870.80;1587.20;;;;;;5094572;28;20084;-76
2021/09/26 09:35:53;;;;;;;7.20;4.75;;;870.60;1561.60;;;;;;5106075;28;20020;-76
2021/09/26 09:38:39;;;;;;;7.68;4.30;;;870.90;1536.00;;;;;;5085943;28;20043;-74
2021/09/26 09:41:05;;;;;;;;;;;871.00;1510.40;;;;;;5103589;28;20038;-76
2021/09/26 09:43:30;;;;;;;;;;;871.20;1484.80;;;;;;5083964;28;20296;-73
2021/09/26 09:46:02;;;;;;;9.43;4.45;;;871.30;1484.80;;;;;;5099593;28;20273;-73
2021/09/26 09:48:30;;;;;;;7.20;4.07;;;896.10;1459.20;;;;;;5082608;28;20035;-74
2021/09/26 09:51:08;;;;;;;5.60;3.83;;;896.40;1433.60;;;;;;5105735;28;20019;-74
2021/09/26 09:53:46;;;;;;;5.80;4.30;;;896.50;1408.00;;;;;;5086948;28;20035;-74
2021/09/26 09:56:20;;;;;;;6.65;3.75;;;896.90;1382.40;;;;;;5102720;28;20479;-74
2021/09/26 09:59:04;;;;;;;6.55;4.22;;;921.80;1382.40;;;;;;5104142;28;20027;-74
2021/09/26 10:01:38;;;;;;;5.00;3.67;;;922.00;1356.80;;;;;;5101036;28;20395;-74
2021/09/26 10:04:07;;;;;;;8.73;4.53;;;922.10;1331.20;;;;;;5082131;28;20024;-74
2021/09/26 10:06:34;;;;;;;7.28;4.28;;;947.20;1305.60;;;;;;5103226;28;20130;-74
2021/09/26 10:09:17;;;;;;;5.15;3.33;;;947.20;1280.00;;;;;;5102071;28;20025;-74
2021/09/26 10:11:54;;;;;;;7.57;4.07;;;922.20;1280.00;;;;;;5086690;28;20043;-74
2021/09/26 10:14:21;;;;;;;9.52;5.03;;;947.20;1254.40;;;;;;5106389;28;20024;-74
2021/09/26 10:16:48;;;;;;;7.03;4.07;;;947.40;1254.40;;;;;;5085894;28;20089;-74
2021/09/26 10:19:14;;;;;;;5.03;4.18;;;947.30;1228.80;;;;;;5088778;28;20027;-74
2021/09/26 10:21:41;;;;;;;5.32;4.18;;;947.70;1203.20;;;;;;5117167;27;20040;-74
2021/09/26 10:24:07;;;;;;;4.65;3.85;;;972.80;1203.20;;;;;;5103207;28;20020;-74
2021/09/26 10:26:37;;;;;;;5.20;3.88;;;973.10;1177.60;;;;;;5107561;28;20050;-74
2021/09/26 10:29:08;;;;;;;7.47;4.50;;;973.30;1152.00;;;;;;5083525;28;20085;-74
2021/09/26 10:31:35;;;;;;;6.32;3.55;;;973.70;1152.00;;;;;;5103977;28;20884;-75
2021/09/26 10:34:03;;;;;;;4.93;3.35;;;973.50;1126.40;;;;;;5099807;28;20114;-74
2021/09/26 10:36:30;;;;;;;7.90;3.72;;;973.40;1126.40;;;;;;5108796;28;20123;-74
2021/09/26 10:38:58;;;;;;;6.40;4.32;;;998.40;1152.00;;;;;;5082809;28;20237;-74
2021/09/26 10:41:25;;;;;;;6.75;4.38;;;998.70;1152.00;;;;;;5099527;28;20024;-75
2021/09/26 10:43:51;;;;;;;6.10;4.00;;;998.40;1152.00;;;;;;5103245;28;20107;-74
2021/09/26 10:46:28;;;;;;;7.82;3.60;;;973.30;1100.80;;;;;;5100656;28;20156;-74
2021/09/26 10:48:56;;;;;;;6.40;3.17;;;973.40;1126.40;;;;;;5097511;28;20023;-74
2021/09/26 10:51:40;;;;;;;4.68;3.83;;;998.70;1100.80;;;;;;5106253;28;20088;-74
2021/09/26 10:54:22;;;;;;;6.38;4.88;;;998.50;1100.80;;;;;;5088338;28;20136;-74
2021/09/26 10:57:11;;;;;;;6.72;4.82;;;998.70;1100.80;;;;;;5102984;28;20027;-75
2021/09/26 10:59:41;;;;;;;7.70;5.97;;;998.50;1075.20;;;;;;5087381;28;20496;-74
2021/09/26 11:02:22;;;;;;;6.95;5.85;;;973.00;1075.20;;;;;;5105813;28;20027;-74
2021/09/26 11:04:56;;;;;;;7.22;5.75;;;998.40;1075.20;;;;;;5101386;28;20124;-74
2021/09/26 11:07:31;;;;;;;8.43;6.83;;;998.60;1049.60;;;;;;5082000;28;20084;-74
2021/09/26 11:10:07;;;;;;;8.20;6.05;;;998.70;1024.00;;;;;;5086068;28;20488;-74
2021/09/26 11:12:49;;;;;;;7.78;6.05;;;999.10;1024.00;;;;;;5084637;28;20399;-73
2021/09/26 11:15:19;;;;;;;10.70;8.75;;;1024.00;1024.00;;;;;;5094824;28;20531;-73
2021/09/26 11:17:51;;;;;;;8.85;7.95;;;1024.20;1024.00;;;;;;5101142;28;20116;-73
2021/09/26 11:20:26;;;;;;;7.93;7.13;;;1024.40;998.40;;;;;;5103210;28;20020;-74
2021/09/26 11:23:04;;;;;;;11.60;8.10;;;1024.40;998.40;;;;;;5101160;28;20235;-73
2021/09/26 11:25:55;;;;;;;10.98;8.20;;;1024.30;1024.00;;;;;;5086391;28;20035;-73
2021/09/26 11:28:27;;;;;;;10.63;8.45;;;1024.50;998.40;;;;;;5004722;28;20034;-73
2021/09/26 11:30:53;;;;;;;14.80;7.53;;;1024.50;998.40;;;;;;5006933;28;20088;-74
2021/09/26 11:33:19;;;;;;;8.80;6.78;;;1049.60;998.40;;;;;;4986408;28;20038;-73
2021/09/26 11:35:45;;;;;;;9.38;7.07;;;1024.90;998.40;;;;;;4989810;28;20042;-73
2021/09/26 11:38:14;;;;;;;7.00;6.30;;;1024.40;998.40;;;;;;5007549;28;20533;-73
2021/09/26 11:40:49;;;;;;;9.45;5.82;;;1024.60;998.40;;;;;;5006103;28;20148;-73
2021/09/26 11:43:18;;;;;;;8.38;5.07;;;1024.10;998.40;;;;;;5006704;28;20037;-73
2021/09/26 11:45:44;;;;;;;11.32;5.68;;;998.90;998.40;;;;;;4988285;28;20121;-73
2021/09/26 11:48:09;;;;;;;7.32;4.93;;;998.80;998.40;;;;;;5008614;28;20116;-73
2021/09/26 11:50:38;;;;;;;6.30;5.25;;;999.00;972.80;;;;;;5007152;28;20108;-74
2021/09/26 11:53:04;;;;;;;11.05;4.90;;;1024.00;972.80;;;;;;5007305;28;20518;-74
2021/09/26 11:55:32;;;;;;;7.72;5.00;;;1024.20;947.20;;;;;;5008189;28;20037;-74
2021/09/26 11:58:00;;;;;;;8.05;5.40;;;1024.40;972.80;;;;;;5005517;28;20567;-73
2021/09/26 12:00:29;;;;;;;8.25;5.45;;;1024.20;972.80;;;;;;4988585;28;20108;-74
2021/09/26 12:02:55;;;;;;;6.70;4.93;;;1024.60;947.20;;;;;;5006895;28;20026;-73
2021/09/26 12:05:38;;;;;;;7.30;4.93;;;1049.60;947.20;;;;;;5058870;28;20043;-73
2021/09/26 12:08:05;;;;;;;7.82;4.63;;;1049.60;998.40;;;;;;5100869;28;20028;-73
2021/09/26 12:10:32;;;;;;;7.10;4.88;;;1024.00;998.40;;;;;;5111671;28;20115;-73
2021/09/26 12:12:57;;;;;;;9.13;4.78;;;1024.10;998.40;;;;;;5080707;28;20044;-74
2021/09/26 12:15:27;;;;;;;5.03;4.53;;;999.30;1024.00;;;;;;5100793;28;20077;-75